Terminal Aerodrome Forecast
Issued by NWS Blacksburg, VA

Home | Current Version | Previous Version | Text Only | Print | Product List | Glossary On
Versions: 1 2 3 4 5 6 7 8 9 10 11 12 13 14 15 16 17 18 19 20 21 22 23 24 25 26 27 28 29 30 31 32 33 34 35 36 37 38 39 40 41 42 43 44 45 46 47 48 49 50
000
FTUS41 KRNK 271122
TAFBLF
TAF
KBLF 271122Z 2712/2812 27007KT P6SM SCT060
     FM271500 26010G18KT P6SM VCSH BKN050
      TEMPO 2720/2722 4SM -TSRA OVC025CB
     FM280000 27006KT P6SM BKN050
     FM280800 24004KT P6SM BKN028=

USA.gov is the U.S. government's official web portal to all federal, state and local government web resources and services.